sensor_id;sensor_type;location;lat;lon;timestamp;temperature;humidity
72940;DHT22;61094;51.154;13.570;2022-08-30T00:02:24;14.80;67.90
72940;DHT22;61094;51.154;13.570;2022-08-30T00:04:51;14.70;68.20
72940;DHT22;61094;51.154;13.570;2022-08-30T00:07:18;14.70;68.60
72940;DHT22;61094;51.154;13.570;2022-08-30T00:09:45;14.70;68.20
72940;DHT22;61094;51.154;13.570;2022-08-30T00:12:11;14.60;68.30
72940;DHT22;61094;51.154;13.570;2022-08-30T00:14:38;14.60;68.20
72940;DHT22;61094;51.154;13.570;2022-08-30T00:17:04;14.60;68.60
72940;DHT22;61094;51.154;13.570;2022-08-30T00:19:32;14.60;68.90
72940;DHT22;61094;51.154;13.570;2022-08-30T00:21:59;14.50;68.80
72940;DHT22;61094;51.154;13.570;2022-08-30T00:24:26;14.50;68.40
72940;DHT22;61094;51.154;13.570;2022-08-30T00:26:52;14.50;68.60
72940;DHT22;61094;51.154;13.570;2022-08-30T00:29:19;14.50;68.30
72940;DHT22;61094;51.154;13.570;2022-08-30T00:31:46;14.40;68.50
72940;DHT22;61094;51.154;13.570;2022-08-30T00:34:13;14.40;68.50
72940;DHT22;61094;51.154;13.570;2022-08-30T00:36:42;14.40;68.70
72940;DHT22;61094;51.154;13.570;2022-08-30T00:39:09;14.40;68.60
72940;DHT22;61094;51.154;13.570;2022-08-30T00:41:36;14.40;68.60
72940;DHT22;61094;51.154;13.570;2022-08-30T00:44:03;14.40;68.70
72940;DHT22;61094;51.154;13.570;2022-08-30T00:46:29;14.30;68.80
72940;DHT22;61094;51.154;13.570;2022-08-30T00:49:06;14.30;68.70
72940;DHT22;61094;51.154;13.570;2022-08-30T00:51:33;14.30;68.60
72940;DHT22;61094;51.154;13.570;2022-08-30T00:54:03;14.20;68.50
72940;DHT22;61094;51.154;13.570;2022-08-30T00:56:30;14.10;68.50
72940;DHT22;61094;51.154;13.570;2022-08-30T00:58:59;14.10;69.40
72940;DHT22;61094;51.154;13.570;2022-08-30T01:01:27;14.10;69.10
72940;DHT22;61094;51.154;13.570;2022-08-30T01:03:55;14.10;69.40
72940;DHT22;61094;51.154;13.570;2022-08-30T01:06:21;14.10;69.80
72940;DHT22;61094;51.154;13.570;2022-08-30T01:08:48;14.10;69.80
72940;DHT22;61094;51.154;13.570;2022-08-30T01:11:19;14.00;69.90
72940;DHT22;61094;51.154;13.570;2022-08-30T01:13:47;14.00;69.90
72940;DHT22;61094;51.154;13.570;2022-08-30T01:16:15;13.90;70.20
72940;DHT22;61094;51.154;13.570;2022-08-30T01:18:42;13.90;70.30
72940;DHT22;61094;51.154;13.570;2022-08-30T01:21:15;13.90;70.40
72940;DHT22;61094;51.154;13.570;2022-08-30T01:23:46;13.90;70.30
72940;DHT22;61094;51.154;13.570;2022-08-30T01:26:14;13.80;69.50
72940;DHT22;61094;51.154;13.570;2022-08-30T01:28:44;13.80;69.80
72940;DHT22;61094;51.154;13.570;2022-08-30T01:31:11;13.80;70.60
72940;DHT22;61094;51.154;13.570;2022-08-30T01:33:38;13.80;70.20
72940;DHT22;61094;51.154;13.570;2022-08-30T01:36:08;13.80;69.80
72940;DHT22;61094;51.154;13.570;2022-08-30T01:38:39;13.70;70.40
72940;DHT22;61094;51.154;13.570;2022-08-30T01:41:11;13.70;70.00
72940;DHT22;61094;51.154;13.570;2022-08-30T01:43:39;13.60;70.00
72940;DHT22;61094;51.154;13.570;2022-08-30T01:46:05;13.60;70.70
72940;DHT22;61094;51.154;13.570;2022-08-30T01:48:32;13.60;71.10
72940;DHT22;61094;51.154;13.570;2022-08-30T01:50:59;13.50;70.90
72940;DHT22;61094;51.154;13.570;2022-08-30T01:53:25;13.50;71.20
72940;DHT22;61094;51.154;13.570;2022-08-30T01:55:52;13.50;70.80
72940;DHT22;61094;51.154;13.570;2022-08-30T01:58:20;13.50;71.20
72940;DHT22;61094;51.154;13.570;2022-08-30T02:00:47;13.40;70.50
72940;DHT22;61094;51.154;13.570;2022-08-30T02:03:14;13.40;71.00
72940;DHT22;61094;51.154;13.570;2022-08-30T02:05:40;13.40;70.60
72940;DHT22;61094;51.154;13.570;2022-08-30T02:08:08;13.40;70.30
72940;DHT22;61094;51.154;13.570;2022-08-30T02:10:34;13.40;71.00
72940;DHT22;61094;51.154;13.570;2022-08-30T02:13:01;13.40;71.30
72940;DHT22;61094;51.154;13.570;2022-08-30T02:15:29;13.40;70.70
72940;DHT22;61094;51.154;13.570;2022-08-30T02:17:55;13.30;71.00
72940;DHT22;61094;51.154;13.570;2022-08-30T02:20:22;13.30;71.80
72940;DHT22;61094;51.154;13.570;2022-08-30T02:22:49;13.30;71.30
72940;DHT22;61094;51.154;13.570;2022-08-30T02:25:15;13.30;70.70
72940;DHT22;61094;51.154;13.570;2022-08-30T02:27:42;13.20;70.50
72940;DHT22;61094;51.154;13.570;2022-08-30T02:30:10;13.30;71.30
72940;DHT22;61094;51.154;13.570;2022-08-30T02:32:38;13.20;71.10
72940;DHT22;61094;51.154;13.570;2022-08-30T02:35:06;13.20;71.80
72940;DHT22;61094;51.154;13.570;2022-08-30T02:37:33;13.10;70.70
72940;DHT22;61094;51.154;13.570;2022-08-30T02:39:59;13.10;71.30
72940;DHT22;61094;51.154;13.570;2022-08-30T02:42:26;13.10;71.70
72940;DHT22;61094;51.154;13.570;2022-08-30T02:44:52;13.10;72.50
72940;DHT22;61094;51.154;13.570;2022-08-30T02:47:19;13.10;72.30
72940;DHT22;61094;51.154;13.570;2022-08-30T02:49:47;13.00;71.50
72940;DHT22;61094;51.154;13.570;2022-08-30T02:52:13;13.00;71.10
72940;DHT22;61094;51.154;13.570;2022-08-30T02:54:40;12.90;71.70
72940;DHT22;61094;51.154;13.570;2022-08-30T02:57:07;12.90;71.10
72940;DHT22;61094;51.154;13.570;2022-08-30T02:59:33;12.90;71.20
72940;DHT22;61094;51.154;13.570;2022-08-30T03:02:02;12.90;71.90
72940;DHT22;61094;51.154;13.570;2022-08-30T03:04:29;12.90;72.60
72940;DHT22;61094;51.154;13.570;2022-08-30T03:06:57;12.90;71.60
72940;DHT22;61094;51.154;13.570;2022-08-30T03:09:24;12.90;72.20
72940;DHT22;61094;51.154;13.570;2022-08-30T03:11:50;12.80;72.50
72940;DHT22;61094;51.154;13.570;2022-08-30T03:14:17;12.80;72.00
72940;DHT22;61094;51.154;13.570;2022-08-30T03:16:44;12.80;72.50
72940;DHT22;61094;51.154;13.570;2022-08-30T03:19:11;12.80;72.20
72940;DHT22;61094;51.154;13.570;2022-08-30T03:21:37;12.80;72.10
72940;DHT22;61094;51.154;13.570;2022-08-30T03:24:06;12.80;72.30
72940;DHT22;61094;51.154;13.570;2022-08-30T03:26:32;12.80;72.30
72940;DHT22;61094;51.154;13.570;2022-08-30T03:28:59;12.70;72.20
72940;DHT22;61094;51.154;13.570;2022-08-30T03:31:26;12.70;72.10
72940;DHT22;61094;51.154;13.570;2022-08-30T03:33:53;12.70;72.50
72940;DHT22;61094;51.154;13.570;2022-08-30T03:36:20;12.70;72.20
72940;DHT22;61094;51.154;13.570;2022-08-30T03:38:47;12.70;72.70
72940;DHT22;61094;51.154;13.570;2022-08-30T03:41:14;12.70;72.30
72940;DHT22;61094;51.154;13.570;2022-08-30T03:43:41;12.70;71.80
72940;DHT22;61094;51.154;13.570;2022-08-30T03:46:10;12.70;71.60
72940;DHT22;61094;51.154;13.570;2022-08-30T03:48:37;12.70;71.80
72940;DHT22;61094;51.154;13.570;2022-08-30T03:51:04;12.60;73.30
72940;DHT22;61094;51.154;13.570;2022-08-30T03:53:30;12.70;72.20
72940;DHT22;61094;51.154;13.570;2022-08-30T03:55:57;12.70;72.10
72940;DHT22;61094;51.154;13.570;2022-08-30T03:58:25;12.60;71.80
72940;DHT22;61094;51.154;13.570;2022-08-30T04:00:53;12.60;72.10
72940;DHT22;61094;51.154;13.570;2022-08-30T04:03:20;12.60;71.60
72940;DHT22;61094;51.154;13.570;2022-08-30T04:05:50;12.60;72.10
72940;DHT22;61094;51.154;13.570;2022-08-30T04:08:16;12.60;72.70
72940;DHT22;61094;51.154;13.570;2022-08-30T04:10:43;12.60;72.70
72940;DHT22;61094;51.154;13.570;2022-08-30T04:13:10;12.50;72.90
72940;DHT22;61094;51.154;13.570;2022-08-30T04:15:39;12.50;72.40
72940;DHT22;61094;51.154;13.570;2022-08-30T04:18:05;12.50;72.30
72940;DHT22;61094;51.154;13.570;2022-08-30T04:20:32;12.50;72.20
72940;DHT22;61094;51.154;13.570;2022-08-30T04:22:59;12.50;72.70
72940;DHT22;61094;51.154;13.570;2022-08-30T04:25:26;12.50;72.80
72940;DHT22;61094;51.154;13.570;2022-08-30T04:27:53;12.50;73.00
72940;DHT22;61094;51.154;13.570;2022-08-30T04:30:20;12.50;72.20
72940;DHT22;61094;51.154;13.570;2022-08-30T04:32:48;12.50;72.80
72940;DHT22;61094;51.154;13.570;2022-08-30T04:35:14;12.50;73.10
72940;DHT22;61094;51.154;13.570;2022-08-30T04:37:41;12.50;73.60
72940;DHT22;61094;51.154;13.570;2022-08-30T04:40:09;12.50;74.30
72940;DHT22;61094;51.154;13.570;2022-08-30T04:42:36;12.60;73.30
72940;DHT22;61094;51.154;13.570;2022-08-30T04:45:06;12.60;72.20
72940;DHT22;61094;51.154;13.570;2022-08-30T04:47:34;12.60;72.40
72940;DHT22;61094;51.154;13.570;2022-08-30T04:50:02;12.70;73.30
72940;DHT22;61094;51.154;13.570;2022-08-30T04:52:29;12.70;71.80
72940;DHT22;61094;51.154;13.570;2022-08-30T04:54:57;12.70;71.30
72940;DHT22;61094;51.154;13.570;2022-08-30T04:57:25;12.70;71.70
72940;DHT22;61094;51.154;13.570;2022-08-30T04:59:52;12.70;72.00
72940;DHT22;61094;51.154;13.570;2022-08-30T05:02:19;12.80;73.70
72940;DHT22;61094;51.154;13.570;2022-08-30T05:04:46;12.80;71.80
72940;DHT22;61094;51.154;13.570;2022-08-30T05:07:28;12.90;71.90
72940;DHT22;61094;51.154;13.570;2022-08-30T05:09:55;12.90;71.80
72940;DHT22;61094;51.154;13.570;2022-08-30T05:12:22;12.90;72.00
72940;DHT22;61094;51.154;13.570;2022-08-30T05:14:49;12.90;72.60
72940;DHT22;61094;51.154;13.570;2022-08-30T05:17:16;12.90;72.40
72940;DHT22;61094;51.154;13.570;2022-08-30T05:19:43;12.90;72.00
72940;DHT22;61094;51.154;13.570;2022-08-30T05:22:10;12.90;72.60
72940;DHT22;61094;51.154;13.570;2022-08-30T05:24:38;12.90;72.30
72940;DHT22;61094;51.154;13.570;2022-08-30T05:27:04;13.00;71.60
72940;DHT22;61094;51.154;13.570;2022-08-30T05:29:31;13.00;72.80
72940;DHT22;61094;51.154;13.570;2022-08-30T05:31:58;13.00;72.00
72940;DHT22;61094;51.154;13.570;2022-08-30T05:34:25;13.10;72.30
72940;DHT22;61094;51.154;13.570;2022-08-30T05:36:52;13.10;71.40
72940;DHT22;61094;51.154;13.570;2022-08-30T05:39:18;13.10;72.00
72940;DHT22;61094;51.154;13.570;2022-08-30T05:41:46;13.20;71.20
72940;DHT22;61094;51.154;13.570;2022-08-30T05:44:13;13.20;71.30
72940;DHT22;61094;51.154;13.570;2022-08-30T05:46:39;13.30;72.00
72940;DHT22;61094;51.154;13.570;2022-08-30T05:49:10;13.30;71.20
72940;DHT22;61094;51.154;13.570;2022-08-30T05:51:37;13.30;71.40
72940;DHT22;61094;51.154;13.570;2022-08-30T05:54:03;13.40;71.50
72940;DHT22;61094;51.154;13.570;2022-08-30T05:56:33;13.40;71.00
72940;DHT22;61094;51.154;13.570;2022-08-30T05:59:02;13.50;71.10
72940;DHT22;61094;51.154;13.570;2022-08-30T06:01:32;13.50;71.20
72940;DHT22;61094;51.154;13.570;2022-08-30T06:04:00;13.60;72.10
72940;DHT22;61094;51.154;13.570;2022-08-30T06:06:28;13.70;71.00
72940;DHT22;61094;51.154;13.570;2022-08-30T06:08:55;13.70;72.00
72940;DHT22;61094;51.154;13.570;2022-08-30T06:11:23;13.80;71.70
72940;DHT22;61094;51.154;13.570;2022-08-30T06:13:51;13.90;72.20
72940;DHT22;61094;51.154;13.570;2022-08-30T06:16:21;13.90;71.80
72940;DHT22;61094;51.154;13.570;2022-08-30T06:18:49;14.00;72.90
72940;DHT22;61094;51.154;13.570;2022-08-30T06:21:16;14.00;71.50
72940;DHT22;61094;51.154;13.570;2022-08-30T06:23:43;14.10;70.80
72940;DHT22;61094;51.154;13.570;2022-08-30T06:26:16;14.10;70.80
72940;DHT22;61094;51.154;13.570;2022-08-30T06:28:43;14.20;70.60
72940;DHT22;61094;51.154;13.570;2022-08-30T06:31:11;14.30;70.90
72940;DHT22;61094;51.154;13.570;2022-08-30T06:33:39;14.40;71.50
72940;DHT22;61094;51.154;13.570;2022-08-30T06:36:08;14.40;71.60
72940;DHT22;61094;51.154;13.570;2022-08-30T06:38:35;14.50;71.10
72940;DHT22;61094;51.154;13.570;2022-08-30T06:41:04;14.60;70.30
72940;DHT22;61094;51.154;13.570;2022-08-30T06:43:32;14.70;70.30
72940;DHT22;61094;51.154;13.570;2022-08-30T06:46:01;14.80;72.10
72940;DHT22;61094;51.154;13.570;2022-08-30T06:48:28;14.90;70.60
72940;DHT22;61094;51.154;13.570;2022-08-30T06:50:56;15.00;70.20
72940;DHT22;61094;51.154;13.570;2022-08-30T06:53:23;15.10;70.20
72940;DHT22;61094;51.154;13.570;2022-08-30T06:55:54;15.20;70.00
72940;DHT22;61094;51.154;13.570;2022-08-30T06:58:21;15.30;69.60
72940;DHT22;61094;51.154;13.570;2022-08-30T07:00:48;15.40;69.30
72940;DHT22;61094;51.154;13.570;2022-08-30T07:03:15;15.50;69.40
72940;DHT22;61094;51.154;13.570;2022-08-30T07:05:41;15.70;69.00
72940;DHT22;61094;51.154;13.570;2022-08-30T07:08:09;15.80;70.50
72940;DHT22;61094;51.154;13.570;2022-08-30T07:10:37;15.90;69.40
72940;DHT22;61094;51.154;13.570;2022-08-30T07:13:03;16.10;69.00
72940;DHT22;61094;51.154;13.570;2022-08-30T07:15:30;16.30;68.60
72940;DHT22;61094;51.154;13.570;2022-08-30T07:17:57;16.50;69.10
72940;DHT22;61094;51.154;13.570;2022-08-30T07:20:41;16.70;69.10
72940;DHT22;61094;51.154;13.570;2022-08-30T07:23:09;16.80;68.90
72940;DHT22;61094;51.154;13.570;2022-08-30T07:25:37;17.10;68.60
72940;DHT22;61094;51.154;13.570;2022-08-30T07:28:05;17.30;68.50
72940;DHT22;61094;51.154;13.570;2022-08-30T07:30:32;17.50;68.50
72940;DHT22;61094;51.154;13.570;2022-08-30T07:32:58;17.70;68.20
72940;DHT22;61094;51.154;13.570;2022-08-30T07:35:25;17.90;68.40
72940;DHT22;61094;51.154;13.570;2022-08-30T07:37:52;18.10;68.30
72940;DHT22;61094;51.154;13.570;2022-08-30T07:40:20;18.30;68.30
72940;DHT22;61094;51.154;13.570;2022-08-30T07:42:46;18.60;68.30
72940;DHT22;61094;51.154;13.570;2022-08-30T07:45:13;18.80;68.20
72940;DHT22;61094;51.154;13.570;2022-08-30T07:47:40;19.00;68.00
72940;DHT22;61094;51.154;13.570;2022-08-30T07:50:07;19.20;67.90
72940;DHT22;61094;51.154;13.570;2022-08-30T07:52:34;19.40;67.70
72940;DHT22;61094;51.154;13.570;2022-08-30T07:55:01;19.70;67.50
72940;DHT22;61094;51.154;13.570;2022-08-30T07:57:29;20.00;67.20
72940;DHT22;61094;51.154;13.570;2022-08-30T07:59:58;20.20;66.50
72940;DHT22;61094;51.154;13.570;2022-08-30T08:02:25;20.50;65.90
72940;DHT22;61094;51.154;13.570;2022-08-30T08:04:52;20.70;65.80
72940;DHT22;61094;51.154;13.570;2022-08-30T08:07:18;20.90;65.60
72940;DHT22;61094;51.154;13.570;2022-08-30T08:09:45;21.20;65.20
72940;DHT22;61094;51.154;13.570;2022-08-30T08:12:12;21.30;64.60
72940;DHT22;61094;51.154;13.570;2022-08-30T08:14:41;21.60;64.40
72940;DHT22;61094;51.154;13.570;2022-08-30T08:17:07;21.80;63.80
72940;DHT22;61094;51.154;13.570;2022-08-30T08:19:34;22.00;63.90
72940;DHT22;61094;51.154;13.570;2022-08-30T08:22:01;22.20;63.20
72940;DHT22;61094;51.154;13.570;2022-08-30T08:24:28;22.50;62.90
72940;DHT22;61094;51.154;13.570;2022-08-30T08:26:55;22.70;62.70
72940;DHT22;61094;51.154;13.570;2022-08-30T08:29:22;22.90;62.60
72940;DHT22;61094;51.154;13.570;2022-08-30T08:31:50;23.20;62.10
72940;DHT22;61094;51.154;13.570;2022-08-30T08:34:17;23.40;61.50
72940;DHT22;61094;51.154;13.570;2022-08-30T08:36:48;23.50;60.80
72940;DHT22;61094;51.154;13.570;2022-08-30T08:39:15;23.70;60.80
72940;DHT22;61094;51.154;13.570;2022-08-30T08:41:50;23.90;60.90
72940;DHT22;61094;51.154;13.570;2022-08-30T08:44:27;24.00;60.00
72940;DHT22;61094;51.154;13.570;2022-08-30T08:47:05;24.30;59.20
72940;DHT22;61094;51.154;13.570;2022-08-30T08:49:37;24.50;59.80
72940;DHT22;61094;51.154;13.570;2022-08-30T08:52:05;24.60;59.90
72940;DHT22;61094;51.154;13.570;2022-08-30T08:54:53;24.90;59.90
72940;DHT22;61094;51.154;13.570;2022-08-30T08:57:21;25.10;59.60
72940;DHT22;61094;51.154;13.570;2022-08-30T08:59:49;25.30;59.10
72940;DHT22;61094;51.154;13.570;2022-08-30T09:02:23;25.40;58.10
72940;DHT22;61094;51.154;13.570;2022-08-30T09:04:53;25.60;58.30
72940;DHT22;61094;51.154;13.570;2022-08-30T09:07:23;25.80;57.30
72940;DHT22;61094;51.154;13.570;2022-08-30T09:09:50;26.00;58.00
72940;DHT22;61094;51.154;13.570;2022-08-30T09:12:17;26.00;56.80
72940;DHT22;61094;51.154;13.570;2022-08-30T09:14:47;26.10;57.40
72940;DHT22;61094;51.154;13.570;2022-08-30T09:17:17;26.10;57.50
72940;DHT22;61094;51.154;13.570;2022-08-30T09:19:56;26.20;57.40
72940;DHT22;61094;51.154;13.570;2022-08-30T09:22:25;26.30;56.90
72940;DHT22;61094;51.154;13.570;2022-08-30T09:25:00;26.50;56.50
72940;DHT22;61094;51.154;13.570;2022-08-30T09:27:30;26.60;56.30
72940;DHT22;61094;51.154;13.570;2022-08-30T09:30:01;26.60;55.60
72940;DHT22;61094;51.154;13.570;2022-08-30T09:32:34;26.40;53.90
72940;DHT22;61094;51.154;13.570;2022-08-30T09:35:03;26.20;56.10
72940;DHT22;61094;51.154;13.570;2022-08-30T09:37:34;26.00;56.00
72940;DHT22;61094;51.154;13.570;2022-08-30T09:40:16;26.00;56.60
72940;DHT22;61094;51.154;13.570;2022-08-30T09:43:02;26.20;53.90
72940;DHT22;61094;51.154;13.570;2022-08-30T09:45:35;26.20;53.80
72940;DHT22;61094;51.154;13.570;2022-08-30T09:48:22;26.20;55.40
72940;DHT22;61094;51.154;13.570;2022-08-30T09:50:57;26.40;53.00
72940;DHT22;61094;51.154;13.570;2022-08-30T09:53:31;26.70;54.70
72940;DHT22;61094;51.154;13.570;2022-08-30T09:56:05;27.00;53.30
72940;DHT22;61094;51.154;13.570;2022-08-30T09:58:41;27.20;50.00
72940;DHT22;61094;51.154;13.570;2022-08-30T10:01:19;27.40;50.80
72940;DHT22;61094;51.154;13.570;2022-08-30T10:03:52;27.70;53.30
72940;DHT22;61094;51.154;13.570;2022-08-30T10:06:30;27.90;50.80
72940;DHT22;61094;51.154;13.570;2022-08-30T10:09:09;27.90;47.80
72940;DHT22;61094;51.154;13.570;2022-08-30T10:11:44;28.00;50.90
72940;DHT22;61094;51.154;13.570;2022-08-30T10:14:40;27.90;51.70
72940;DHT22;61094;51.154;13.570;2022-08-30T10:17:15;27.80;52.60
72940;DHT22;61094;51.154;13.570;2022-08-30T10:19:56;27.60;52.20
72940;DHT22;61094;51.154;13.570;2022-08-30T10:22:32;27.30;51.00
72940;DHT22;61094;51.154;13.570;2022-08-30T10:25:02;27.10;51.80
72940;DHT22;61094;51.154;13.570;2022-08-30T10:27:34;26.90;53.60
72940;DHT22;61094;51.154;13.570;2022-08-30T10:30:04;26.90;50.00
72940;DHT22;61094;51.154;13.570;2022-08-30T10:32:35;27.00;51.40
72940;DHT22;61094;51.154;13.570;2022-08-30T10:35:06;27.10;53.20
72940;DHT22;61094;51.154;13.570;2022-08-30T10:37:38;27.20;52.00
72940;DHT22;61094;51.154;13.570;2022-08-30T10:40:12;27.30;50.80
72940;DHT22;61094;51.154;13.570;2022-08-30T10:43:01;27.60;50.40
72940;DHT22;61094;51.154;13.570;2022-08-30T10:45:32;27.60;50.20
72940;DHT22;61094;51.154;13.570;2022-08-30T10:48:05;27.60;49.00
72940;DHT22;61094;51.154;13.570;2022-08-30T10:50:39;27.70;51.20
72940;DHT22;61094;51.154;13.570;2022-08-30T10:53:11;27.80;51.50
72940;DHT22;61094;51.154;13.570;2022-08-30T10:55:43;28.00;49.40
72940;DHT22;61094;51.154;13.570;2022-08-30T10:58:11;28.20;49.40
72940;DHT22;61094;51.154;13.570;2022-08-30T11:00:46;28.30;48.20
72940;DHT22;61094;51.154;13.570;2022-08-30T11:03:43;28.40;47.50
72940;DHT22;61094;51.154;13.570;2022-08-30T11:06:20;28.50;45.50
72940;DHT22;61094;51.154;13.570;2022-08-30T11:12:09;28.70;45.50
72940;DHT22;61094;51.154;13.570;2022-08-30T11:14:39;28.60;47.30
72940;DHT22;61094;51.154;13.570;2022-08-30T11:17:25;28.50;47.60
72940;DHT22;61094;51.154;13.570;2022-08-30T11:19:53;28.30;45.80
72940;DHT22;61094;51.154;13.570;2022-08-30T11:22:24;28.20;47.90
72940;DHT22;61094;51.154;13.570;2022-08-30T11:25:08;28.10;48.50
72940;DHT22;61094;51.154;13.570;2022-08-30T11:27:42;28.00;46.10
72940;DHT22;61094;51.154;13.570;2022-08-30T11:33:44;27.60;46.10
72940;DHT22;61094;51.154;13.570;2022-08-30T11:36:24;27.40;43.80
72940;DHT22;61094;51.154;13.570;2022-08-30T11:39:06;27.20;49.50
72940;DHT22;61094;51.154;13.570;2022-08-30T11:41:36;27.00;49.50
72940;DHT22;61094;51.154;13.570;2022-08-30T11:44:29;26.90;49.10
72940;DHT22;61094;51.154;13.570;2022-08-30T11:46:58;26.80;46.70
72940;DHT22;61094;51.154;13.570;2022-08-30T11:49:43;26.80;47.80
72940;DHT22;61094;51.154;13.570;2022-08-30T11:52:20;26.80;43.20
72940;DHT22;61094;51.154;13.570;2022-08-30T11:55:00;26.80;49.10
72940;DHT22;61094;51.154;13.570;2022-08-30T11:57:37;27.10;47.50
72940;DHT22;61094;51.154;13.570;2022-08-30T12:00:08;27.50;47.50
72940;DHT22;61094;51.154;13.570;2022-08-30T12:02:53;27.90;48.10
72940;DHT22;61094;51.154;13.570;2022-08-30T12:05:46;28.10;45.60
72940;DHT22;61094;51.154;13.570;2022-08-30T12:08:44;28.10;46.10
72940;DHT22;61094;51.154;13.570;2022-08-30T12:14:40;27.60;45.60
72940;DHT22;61094;51.154;13.570;2022-08-30T12:17:47;27.20;47.40
72940;DHT22;61094;51.154;13.570;2022-08-30T12:20:40;26.80;46.40
72940;DHT22;61094;51.154;13.570;2022-08-30T12:23:18;26.60;49.40
72940;DHT22;61094;51.154;13.570;2022-08-30T12:25:45;26.40;48.40
72940;DHT22;61094;51.154;13.570;2022-08-30T12:28:16;26.40;50.30
72940;DHT22;61094;51.154;13.570;2022-08-30T12:30:47;26.40;49.80
72940;DHT22;61094;51.154;13.570;2022-08-30T12:33:24;26.60;49.00
72940;DHT22;61094;51.154;13.570;2022-08-30T12:35:52;26.90;48.20
72940;DHT22;61094;51.154;13.570;2022-08-30T12:38:20;27.20;48.80
72940;DHT22;61094;51.154;13.570;2022-08-30T12:40:49;27.60;48.40
72940;DHT22;61094;51.154;13.570;2022-08-30T12:43:23;28.00;47.30
72940;DHT22;61094;51.154;13.570;2022-08-30T12:45:52;28.30;46.70
72940;DHT22;61094;51.154;13.570;2022-08-30T12:48:20;28.60;46.40
72940;DHT22;61094;51.154;13.570;2022-08-30T12:50:49;28.80;46.20
72940;DHT22;61094;51.154;13.570;2022-08-30T12:53:24;28.80;46.10
72940;DHT22;61094;51.154;13.570;2022-08-30T12:55:54;28.80;45.90
72940;DHT22;61094;51.154;13.570;2022-08-30T12:58:34;28.70;45.60
72940;DHT22;61094;51.154;13.570;2022-08-30T13:01:16;28.50;43.40
72940;DHT22;61094;51.154;13.570;2022-08-30T13:03:55;28.30;45.30
72940;DHT22;61094;51.154;13.570;2022-08-30T13:06:37;28.20;43.90
72940;DHT22;61094;51.154;13.570;2022-08-30T13:09:04;27.90;46.30
72940;DHT22;61094;51.154;13.570;2022-08-30T13:11:30;27.60;44.20
72940;DHT22;61094;51.154;13.570;2022-08-30T13:14:20;27.10;46.80
72940;DHT22;61094;51.154;13.570;2022-08-30T13:16:47;26.70;44.70
72940;DHT22;61094;51.154;13.570;2022-08-30T13:19:26;26.50;48.70
72940;DHT22;61094;51.154;13.570;2022-08-30T13:21:57;26.30;47.20
72940;DHT22;61094;51.154;13.570;2022-08-30T13:24:25;26.20;49.00
72940;DHT22;61094;51.154;13.570;2022-08-30T13:26:53;26.10;48.70
72940;DHT22;61094;51.154;13.570;2022-08-30T13:29:24;26.10;48.80
72940;DHT22;61094;51.154;13.570;2022-08-30T13:31:51;26.10;48.30
72940;DHT22;61094;51.154;13.570;2022-08-30T13:34:18;26.10;47.60
72940;DHT22;61094;51.154;13.570;2022-08-30T13:36:48;26.10;48.10
72940;DHT22;61094;51.154;13.570;2022-08-30T13:39:15;26.00;47.70
72940;DHT22;61094;51.154;13.570;2022-08-30T13:41:43;25.90;47.70
72940;DHT22;61094;51.154;13.570;2022-08-30T13:44:09;25.80;47.30
72940;DHT22;61094;51.154;13.570;2022-08-30T13:46:38;25.60;47.60
72940;DHT22;61094;51.154;13.570;2022-08-30T13:49:08;25.50;47.90
72940;DHT22;61094;51.154;13.570;2022-08-30T13:51:37;25.40;48.00
72940;DHT22;61094;51.154;13.570;2022-08-30T13:54:04;25.30;49.00
72940;DHT22;61094;51.154;13.570;2022-08-30T13:56:31;25.30;48.90
72940;DHT22;61094;51.154;13.570;2022-08-30T13:58:58;25.40;48.90
72940;DHT22;61094;51.154;13.570;2022-08-30T14:01:25;25.60;47.60
72940;DHT22;61094;51.154;13.570;2022-08-30T14:03:53;25.80;46.60
72940;DHT22;61094;51.154;13.570;2022-08-30T14:06:20;26.10;47.40
72940;DHT22;61094;51.154;13.570;2022-08-30T14:08:47;26.40;46.70
72940;DHT22;61094;51.154;13.570;2022-08-30T14:11:15;26.60;46.60
72940;DHT22;61094;51.154;13.570;2022-08-30T14:13:42;26.80;45.80
72940;DHT22;61094;51.154;13.570;2022-08-30T14:16:09;26.80;45.60
72940;DHT22;61094;51.154;13.570;2022-08-30T14:18:36;26.90;45.40
72940;DHT22;61094;51.154;13.570;2022-08-30T14:21:04;26.80;45.60
72940;DHT22;61094;51.154;13.570;2022-08-30T14:23:30;26.80;45.10
72940;DHT22;61094;51.154;13.570;2022-08-30T14:25:57;26.70;46.00
72940;DHT22;61094;51.154;13.570;2022-08-30T14:28:25;26.70;46.70
72940;DHT22;61094;51.154;13.570;2022-08-30T14:30:54;26.50;46.00
72940;DHT22;61094;51.154;13.570;2022-08-30T14:33:21;26.40;44.70
72940;DHT22;61094;51.154;13.570;2022-08-30T14:35:48;26.40;46.30
72940;DHT22;61094;51.154;13.570;2022-08-30T14:38:16;26.30;46.80
72940;DHT22;61094;51.154;13.570;2022-08-30T14:40:43;26.40;45.80
72940;DHT22;61094;51.154;13.570;2022-08-30T14:43:10;26.60;45.30
72940;DHT22;61094;51.154;13.570;2022-08-30T14:45:36;26.70;45.10
72940;DHT22;61094;51.154;13.570;2022-08-30T14:48:03;26.90;45.30
72940;DHT22;61094;51.154;13.570;2022-08-30T14:50:33;27.10;45.10
72940;DHT22;61094;51.154;13.570;2022-08-30T14:53:00;27.30;44.20
72940;DHT22;61094;51.154;13.570;2022-08-30T14:55:28;27.40;44.80
72940;DHT22;61094;51.154;13.570;2022-08-30T14:57:56;27.60;44.80
72940;DHT22;61094;51.154;13.570;2022-08-30T15:00:23;27.60;43.90
72940;DHT22;61094;51.154;13.570;2022-08-30T15:02:50;27.40;44.90
72940;DHT22;61094;51.154;13.570;2022-08-30T15:05:17;27.40;44.80
72940;DHT22;61094;51.154;13.570;2022-08-30T15:07:47;27.40;44.20
72940;DHT22;61094;51.154;13.570;2022-08-30T15:10:14;27.40;44.00
72940;DHT22;61094;51.154;13.570;2022-08-30T15:12:45;27.20;45.40
72940;DHT22;61094;51.154;13.570;2022-08-30T15:15:13;27.00;44.90
72940;DHT22;61094;51.154;13.570;2022-08-30T15:17:40;26.80;46.10
72940;DHT22;61094;51.154;13.570;2022-08-30T15:20:09;26.70;44.30
72940;DHT22;61094;51.154;13.570;2022-08-30T15:22:36;26.70;46.00
72940;DHT22;61094;51.154;13.570;2022-08-30T15:25:03;26.60;45.00
72940;DHT22;61094;51.154;13.570;2022-08-30T15:27:29;26.60;46.40
72940;DHT22;61094;51.154;13.570;2022-08-30T15:29:57;26.60;46.20
72940;DHT22;61094;51.154;13.570;2022-08-30T15:32:24;26.40;46.00
72940;DHT22;61094;51.154;13.570;2022-08-30T15:34:51;26.40;46.20
72940;DHT22;61094;51.154;13.570;2022-08-30T15:37:17;26.30;46.70
72940;DHT22;61094;51.154;13.570;2022-08-30T15:39:46;26.20;46.10
72940;DHT22;61094;51.154;13.570;2022-08-30T15:42:13;26.20;46.20